Time;durP1;ratioP1;P1;durP2;ratioP2;P2;SDS_P1;SDS_P2;PMS_P1;PMS_P2;Temp;Humidity;BMP_temperature;BMP_pressure;BME280_temperature;BME280_humidity;BME280_pressure;Samples;Min_cycle;Max_cycle;Signal;HPM_P1;HPM_P2
2022/01/20 00:01:07;;;;;;;4.40;1.55;;;;;;;1.13;98.82;98633.97;5028839;28;20133;-80
2022/01/20 00:03:35;;;;;;;3.67;1.55;;;;;;;1.14;98.88;98627.50;5013688;28;20125;-80
2022/01/20 00:27:31;;;;;;;4.63;1.58;;;;;;;1.22;98.28;98605.38;5054083;28;20562;-80
2022/01/20 00:32:58;;;;;;;3.05;1.73;;;;;;;1.19;98.07;98592.38;5035574;28;20514;-80
2022/01/20 00:37:42;;;;;;;2.63;1.55;;;;;;;1.20;98.11;98585.88;5049098;28;20554;-80
2022/01/20 00:40:08;;;;;;;3.20;1.70;;;;;;;1.19;98.21;98568.88;5045292;28;20037;-79
2022/01/20 00:42:34;;;;;;;5.95;1.75;;;;;;;1.17;98.19;98568.34;5056431;28;20037;-79
2022/01/20 00:45:00;;;;;;;6.45;2.25;;;;;;;1.16;98.31;98574.00;5063050;28;20052;-79
2022/01/20 00:47:25;;;;;;;4.55;2.00;;;;;;;1.17;97.98;98579.16;5044838;28;20048;-78
2022/01/20 00:49:51;;;;;;;3.70;1.90;;;;;;;1.15;98.07;98567.00;5054091;28;20033;-79
2022/01/20 00:52:16;;;;;;;3.50;1.85;;;;;;;1.13;98.17;98556.47;5035421;28;20037;-79
2022/01/20 00:54:42;;;;;;;3.70;1.58;;;;;;;1.13;98.10;98556.47;5053093;28;20033;-79
2022/01/20 00:57:08;;;;;;;4.90;2.05;;;;;;;1.14;98.14;98552.69;5034861;28;20178;-78
2022/01/20 00:59:34;;;;;;;4.72;2.13;;;;;;;1.16;97.97;98557.81;5056009;28;20041;-78
2022/01/20 01:02:03;;;;;;;5.10;1.98;;;;;;;1.16;97.77;98552.41;5033872;28;20061;-79
2022/01/20 01:04:29;;;;;;;4.10;2.25;;;;;;;1.16;97.86;98550.50;5034822;28;20036;-79
2022/01/20 01:09:21;;;;;;;6.40;2.45;;;;;;;1.17;97.61;98543.22;5057343;28;20422;-80
2022/01/20 01:11:48;;;;;;;4.72;2.20;;;;;;;1.18;97.79;98552.94;5036979;28;20067;-80
2022/01/20 01:14:16;;;;;;;5.35;2.22;;;;;;;1.17;97.37;98549.44;5031913;28;20048;-80
2022/01/20 01:22:21;;;;;;;5.90;2.53;;;;;;;1.19;97.70;98554.56;5051975;28;20037;-81
2022/01/20 01:24:51;;;;;;;7.65;2.40;;;;;;;1.18;97.75;98531.34;5049376;28;20041;-81
2022/01/20 01:27:17;;;;;;;5.18;2.08;;;;;;;1.19;97.69;98536.47;5023118;28;20036;-80
2022/01/20 01:32:39;;;;;;;4.80;2.08;;;;;;;1.17;97.57;98532.41;5056103;28;20569;-81
2022/01/20 01:35:08;;;;;;;5.72;2.00;;;;;;;1.14;97.98;98532.97;5041196;28;20041;-81
2022/01/20 01:40:09;;;;;;;4.35;2.15;;;;;;;1.14;97.67;98531.06;5049153;28;20049;-81
2022/01/20 01:42:47;;;;;;;5.25;2.03;;;;;;;1.13;97.49;98529.44;5038292;28;20036;-81
2022/01/20 01:45:25;;;;;;;6.00;2.58;;;;;;;1.14;97.66;98519.47;5067307;28;20086;-81
2022/01/20 01:47:51;;;;;;;5.22;2.90;;;;;;;1.15;97.37;98515.66;5039764;28;20170;-79
2022/01/20 01:50:21;;;;;;;6.03;2.47;;;;;;;1.15;97.40;98511.06;5066745;28;20090;-79
2022/01/20 01:52:47;;;;;;;5.38;2.45;;;;;;;1.15;97.47;98519.19;5038752;28;20086;-81
2022/01/20 01:55:13;;;;;;;4.97;2.63;;;;;;;1.16;97.37;98503.78;5050551;28;20045;-81
2022/01/20 01:57:41;;;;;;;6.53;2.80;;;;;;;1.17;97.40;98494.59;5051070;28;20478;-80
2022/01/20 02:00:09;;;;;;;7.13;1.77;;;;;;;1.17;97.23;98508.09;5053339;28;20036;-80
2022/01/20 02:02:44;;;;;;;3.22;2.50;;;;;;;1.16;97.03;98507.28;5047337;28;20140;-80
2022/01/20 02:05:19;;;;;;;3.95;2.53;;;;;;;1.17;97.25;98505.41;5049102;28;20036;-81
2022/01/20 02:08:25;;;;;;;4.50;2.30;;;;;;;1.18;97.03;98502.44;5050037;28;20045;-80
2022/01/20 02:19:14;;;;;;;3.42;1.27;;;;;;;1.14;96.29;98493.25;5037286;28;20499;-80
2022/01/20 02:22:02;;;;;;;3.03;1.60;;;;;;;1.17;96.53;98489.19;5038772;28;20087;-81
2022/01/20 02:24:31;;;;;;;3.63;2.53;;;;;;;1.21;96.34;98484.84;5032637;28;20546;-81
2022/01/20 02:26:58;;;;;;;3.03;1.88;;;;;;;1.22;95.98;98486.50;5039248;28;20119;-80
2022/01/20 02:29:31;;;;;;;4.85;1.90;;;;;;;1.23;95.93;98487.31;5042577;28;20041;-80
2022/01/20 02:31:59;;;;;;;7.60;1.88;;;;;;;1.22;96.08;98473.00;5059297;28;20066;-80
2022/01/20 02:34:28;;;;;;;5.75;2.42;;;;;;;1.22;95.96;98478.41;5037691;28;20037;-80
2022/01/20 02:36:56;;;;;;;;;;;;;;;1.22;95.60;98473.00;5016968;28;20111;-80
2022/01/20 02:44:54;;;;;;;3.42;1.85;;;;;;;1.23;95.59;98463.81;5060893;28;20086;-80
2022/01/20 02:47:32;;;;;;;3.85;2.00;;;;;;;1.19;95.50;98458.13;5017407;28;20033;-80
2022/01/20 02:49:58;;;;;;;2.80;1.73;;;;;;;1.18;95.39;98461.09;5048797;28;20130;-80
2022/01/20 02:52:25;;;;;;;2.15;1.52;;;;;;;1.17;95.92;98459.47;5039217;28;20107;-80
2022/01/20 02:54:54;;;;;;;4.25;2.05;;;;;;;1.14;95.61;98450.03;5048551;28;20064;-80
2022/01/20 02:57:19;;;;;;;8.25;2.40;;;;;;;1.12;95.37;98446.81;5021968;28;20036;-80
2022/01/20 02:59:45;;;;;;;4.50;2.40;;;;;;;1.10;95.76;98445.47;5049893;28;20506;-80
2022/01/20 03:02:11;;;;;;;6.03;2.08;;;;;;;1.07;95.59;98438.72;5061606;28;20044;-79
2022/01/20 03:04:38;;;;;;;3.67;1.98;;;;;;;1.08;95.42;98434.13;5047366;28;20506;-79
2022/01/20 03:07:08;;;;;;;6.30;2.78;;;;;;;1.06;95.59;98425.50;5032134;28;20664;-80
2022/01/20 03:09:33;;;;;;;6.07;2.65;;;;;;;1.05;95.43;98415.78;5051142;28;20045;-81
2022/01/20 03:12:00;;;;;;;4.32;2.70;;;;;;;1.03;95.97;98412.50;5051693;28;20052;-80
2022/01/20 03:14:25;;;;;;;4.47;2.45;;;;;;;1.00;95.77;98408.47;5042681;28;20037;-81
2022/01/20 03:16:52;;;;;;;3.85;2.00;;;;;;;0.99;95.81;98397.94;5048881;28;20029;-80
2022/01/20 03:19:17;;;;;;;6.30;3.10;;;;;;;0.98;95.75;98370.13;5040954;28;20064;-80
2022/01/20 03:21:44;;;;;;;4.97;3.00;;;;;;;0.97;96.24;98373.13;5035243;28;20040;-80
2022/01/20 03:24:11;;;;;;;7.47;2.90;;;;;;;0.96;95.88;98390.41;5056255;28;20051;-80
2022/01/20 03:26:39;;;;;;;6.90;3.10;;;;;;;0.94;96.13;98385.28;5069917;28;20041;-80
2022/01/20 03:29:06;;;;;;;7.10;2.95;;;;;;;0.95;96.18;98392.28;5051671;28;20041;-80
2022/01/20 03:31:33;;;;;;;7.47;2.65;;;;;;;0.96;95.66;98393.09;5058581;28;20123;-80
2022/01/20 03:33:59;;;;;;;8.68;3.15;;;;;;;0.95;95.77;98386.09;5056696;28;20510;-80
2022/01/20 03:36:25;;;;;;;8.52;3.03;;;;;;;0.93;95.73;98385.56;5058333;28;20041;-80
2022/01/20 03:39:14;;;;;;;6.68;2.85;;;;;;;0.93;95.86;98393.66;5053989;28;20043;-80
2022/01/20 03:41:40;;;;;;;9.93;3.63;;;;;;;0.92;96.19;98387.44;5036801;28;20044;-80
2022/01/20 03:44:16;;;;;;;9.85;3.03;;;;;;;0.92;95.54;98386.63;5034708;28;20638;-80
2022/01/20 03:46:42;;;;;;;5.22;2.63;;;;;;;0.92;96.29;98383.94;5068348;28;20041;-79
2022/01/20 03:49:11;;;;;;;4.93;2.72;;;;;;;0.88;95.81;98387.19;5018959;28;20135;-79
2022/01/20 03:51:37;;;;;;;5.32;3.03;;;;;;;0.88;96.04;98384.47;5060867;28;20411;-79
2022/01/20 03:54:05;;;;;;;6.32;3.38;;;;;;;0.85;95.68;98376.91;5031957;28;20522;-78
2022/01/20 03:56:55;;;;;;;6.00;3.28;;;;;;;0.83;95.84;98384.47;5050389;28;20045;-80
2022/01/20 03:59:39;;;;;;;10.38;3.42;;;;;;;0.82;95.97;98382.84;5049239;28;20048;-79
2022/01/20 04:02:07;;;;;;;3.33;2.30;;;;;;;0.82;95.83;98360.44;5068858;28;20040;-78
2022/01/20 04:04:48;;;;;;;5.85;3.95;;;;;;;0.81;95.45;98370.44;5051396;28;20051;-79
2022/01/20 04:07:19;;;;;;;5.60;3.08;;;;;;;0.79;95.49;98367.22;5066169;28;20128;-79
2022/01/20 04:09:44;;;;;;;6.20;3.30;;;;;;;0.78;95.69;98365.59;5079754;28;20124;-79
2022/01/20 04:12:10;;;;;;;6.68;3.13;;;;;;;0.75;95.88;98374.25;5028337;28;20044;-80
2022/01/20 04:14:45;;;;;;;7.30;3.15;;;;;;;0.73;95.46;98371.00;5051432;28;20136;-79
2022/01/20 04:17:16;;;;;;;10.45;3.70;;;;;;;0.73;95.56;98365.63;5034993;28;20049;-79
2022/01/20 04:19:42;;;;;;;5.70;3.35;;;;;;;0.73;95.68;98362.91;5020559;28;20029;-79
2022/01/20 04:22:08;;;;;;;7.15;3.40;;;;;;;0.72;95.59;98365.88;5022639;28;20033;-80
2022/01/20 04:24:34;;;;;;;10.13;4.03;;;;;;;0.73;95.57;98357.50;5035622;28;20051;-81
2022/01/20 04:27:00;;;;;;;8.55;3.20;;;;;;;0.72;95.45;98347.81;4998807;28;20065;-82
2022/01/20 04:29:28;;;;;;;6.32;3.33;;;;;;;0.74;95.57;98355.63;5042448;28;20032;-83
2022/01/20 04:31:53;;;;;;;6.18;3.70;;;;;;;0.72;95.64;98347.00;5046364;28;20558;-80
2022/01/20 04:34:19;;;;;;;5.70;3.00;;;;;;;0.70;95.96;98341.88;5051704;28;20033;-79
2022/01/20 04:36:47;;;;;;;8.05;3.72;;;;;;;0.69;95.27;98351.03;5058015;28;20041;-83
2022/01/20 04:39:18;;;;;;;7.95;3.67;;;;;;;0.68;95.27;98349.41;5045969;28;20037;-80
2022/01/20 04:41:44;;;;;;;9.02;3.60;;;;;;;0.69;95.28;98356.41;5064692;28;20354;-88
2022/01/20 04:44:29;;;;;;;6.20;3.08;;;;;;;0.68;95.42;98354.81;5055295;28;20174;-82
2022/01/20 04:47:03;;;;;;;6.80;3.90;;;;;;;0.68;95.29;98364.78;5033706;28;20045;-83
2022/01/20 04:57:42;;;;;;;4.20;3.53;;;;;;;0.68;94.95;98364.78;5055918;28;20510;-84
2022/01/20 05:00:09;;;;;;;6.75;3.92;;;;;;;0.68;95.72;98359.41;5039062;28;20041;-83
2022/01/20 05:02:55;;;;;;;7.90;3.53;;;;;;;0.66;95.14;98346.16;5041529;28;20041;-83
2022/01/20 05:05:21;;;;;;;7.20;3.30;;;;;;;0.66;95.00;98340.78;5029305;28;20052;-83
2022/01/20 05:07:51;;;;;;;9.07;3.45;;;;;;;0.64;95.42;98321.34;5031820;28;20038;-84
2022/01/20 05:10:17;;;;;;;9.75;3.80;;;;;;;0.64;94.81;98328.63;5031772;28;20040;-83
2022/01/20 05:15:17;;;;;;;7.45;3.72;;;;;;;0.60;94.88;98328.38;5033557;28;20041;-83
2022/01/20 05:17:43;;;;;;;5.63;3.28;;;;;;;0.60;94.60;98323.00;5033432;28;20507;-84
2022/01/20 05:20:09;;;;;;;7.00;3.08;;;;;;;0.61;95.19;98332.69;5033686;28;20043;-82
2022/01/20 05:22:35;;;;;;;7.95;3.65;;;;;;;0.61;95.02;98335.41;5040590;28;20058;-83
2022/01/20 05:25:04;;;;;;;8.50;3.13;;;;;;;0.60;94.95;98325.69;5010748;28;20088;-83
2022/01/20 05:27:30;;;;;;;5.68;3.15;;;;;;;0.60;94.70;98329.19;5026806;28;20395;-83
2022/01/20 05:29:56;;;;;;;6.03;3.90;;;;;;;0.60;94.21;98328.38;5026643;28;20615;-82
2022/01/20 05:32:24;;;;;;;8.73;3.78;;;;;;;0.61;94.68;98330.00;5010549;28;20622;-82
2022/01/20 05:34:50;;;;;;;8.00;3.92;;;;;;;0.60;94.69;98331.09;5043577;28;20588;-82
2022/01/20 05:37:15;;;;;;;5.40;3.30;;;;;;;0.60;94.15;98325.69;5035133;28;20045;-82
2022/01/20 05:39:42;;;;;;;6.32;3.50;;;;;;;0.60;94.10;98326.50;5038757;28;20049;-82
2022/01/20 05:42:10;;;;;;;7.75;3.25;;;;;;;0.62;94.23;98328.91;5008386;28;20504;-82
2022/01/20 05:44:52;;;;;;;9.50;3.47;;;;;;;0.62;93.93;98325.41;5023781;28;20057;-82
2022/01/20 05:47:26;;;;;;;5.35;3.47;;;;;;;0.60;93.66;98323.78;5007347;28;20045;-82
2022/01/20 05:50:07;;;;;;;7.85;3.50;;;;;;;0.61;93.89;98319.22;4991697;28;20133;-82
2022/01/20 05:52:36;;;;;;;6.25;3.17;;;;;;;0.61;93.64;98308.41;4990600;28;20062;-84
2022/01/20 05:55:01;;;;;;;4.82;2.92;;;;;;;0.63;93.45;98311.63;5014736;28;20076;-82
2022/01/20 05:57:27;;;;;;;6.78;2.85;;;;;;;0.63;93.50;98310.84;5026477;28;20065;-83
2022/01/20 05:59:53;;;;;;;5.18;3.55;;;;;;;0.62;93.98;98303.81;5026645;28;20124;-83
2022/01/20 06:02:34;;;;;;;4.57;3.07;;;;;;;0.62;93.99;98301.94;5010059;28;20048;-81
2022/01/20 06:05:03;;;;;;;8.38;3.70;;;;;;;0.62;93.86;98290.31;5026529;28;20042;-81
2022/01/20 06:07:29;;;;;;;6.22;3.22;;;;;;;0.63;93.95;98290.06;5009719;28;20070;-81
2022/01/20 06:09:54;;;;;;;4.03;3.55;;;;;;;0.62;93.92;98293.84;5026653;28;20131;-81
2022/01/20 06:12:20;;;;;;;6.38;3.58;;;;;;;0.62;93.86;98290.31;5009806;28;20504;-82
2022/01/20 06:14:45;;;;;;;6.90;3.72;;;;;;;0.59;94.18;98286.28;5026489;28;20048;-82
2022/01/20 06:17:11;;;;;;;7.35;3.38;;;;;;;0.58;94.23;98296.28;5010088;28;20476;-83
2022/01/20 06:19:37;;;;;;;5.32;3.10;;;;;;;0.59;94.16;98294.38;4993579;28;20037;-83
2022/01/20 06:22:03;;;;;;;5.00;3.38;;;;;;;0.59;94.02;98289.00;4996790;28;20041;-83
2022/01/20 06:24:29;;;;;;;7.65;3.20;;;;;;;0.59;94.16;98287.09;5049418;28;20427;-81
2022/01/20 06:26:54;;;;;;;6.72;3.75;;;;;;;0.60;93.92;98277.91;5065933;28;20503;-83
2022/01/20 06:29:22;;;;;;;10.38;4.30;;;;;;;0.60;93.78;98280.63;5016376;28;20052;-81
2022/01/20 06:31:47;;;;;;;5.38;3.58;;;;;;;0.61;93.74;98273.31;5033084;28;20037;-82
2022/01/20 06:34:13;;;;;;;5.15;3.80;;;;;;;0.60;93.63;98277.91;5032929;28;20132;-82
2022/01/20 06:36:39;;;;;;;7.22;3.50;;;;;;;0.62;93.12;98266.84;5066214;28;20081;-83
2022/01/20 06:39:04;;;;;;;6.15;3.65;;;;;;;0.60;93.43;98261.72;5033049;28;20041;-82
2022/01/20 06:41:37;;;;;;;7.70;3.85;;;;;;;0.60;93.68;98271.72;5032540;28;20049;-82
2022/01/20 06:44:03;;;;;;;6.82;3.58;;;;;;;0.63;93.68;98267.66;5048449;28;20132;-83
2022/01/20 06:46:28;;;;;;;5.47;3.50;;;;;;;0.67;93.01;98260.63;5049926;28;20119;-82
2022/01/20 06:49:09;;;;;;;7.68;3.92;;;;;;;0.70;93.46;98254.69;5049338;28;20133;-83
2022/01/20 06:51:40;;;;;;;6.28;3.65;;;;;;;0.71;93.34;98256.31;5049310;28;20045;-82
2022/01/20 06:54:06;;;;;;;7.57;3.97;;;;;;;0.72;93.25;98255.22;5050213;28;20037;-82
2022/01/20 06:56:33;;;;;;;6.90;4.03;;;;;;;0.72;93.29;98264.13;5032271;28;20041;-82
2022/01/20 06:58:59;;;;;;;7.72;3.83;;;;;;;0.76;93.44;98249.00;5016338;28;20051;-82
2022/01/20 07:01:25;;;;;;;6.05;3.63;;;;;;;0.78;93.05;98254.13;5017496;28;20144;-83
2022/01/20 07:03:52;;;;;;;5.93;3.90;;;;;;;0.79;93.20;98261.13;5052158;28;20067;-83
2022/01/20 07:06:18;;;;;;;6.40;3.95;;;;;;;0.77;92.92;98258.69;5054180;28;20037;-83
2022/01/20 07:09:03;;;;;;;7.95;3.72;;;;;;;0.78;92.86;98257.63;5037472;28;20423;-83
2022/01/20 07:11:31;;;;;;;7.03;3.72;;;;;;;0.82;92.32;98255.16;5032924;28;20034;-83
2022/01/20 07:13:56;;;;;;;7.45;4.10;;;;;;;0.81;92.27;98257.06;5019928;28;20051;-83
2022/01/20 07:16:22;;;;;;;9.60;4.28;;;;;;;0.80;91.52;98251.94;5049119;28;20042;-83
2022/01/20 07:18:50;;;;;;;7.15;3.95;;;;;;;0.77;91.40;98250.59;5035721;28;20041;-83
2022/01/20 07:21:16;;;;;;;7.28;4.43;;;;;;;0.77;91.51;98245.22;5069126;28;20064;-83
2022/01/20 07:23:51;;;;;;;7.10;4.00;;;;;;;0.75;91.05;98241.97;5052359;28;20052;-83
2022/01/20 07:26:17;;;;;;;8.43;4.13;;;;;;;0.76;91.14;98232.00;5052402;28;20045;-84
2022/01/20 07:28:51;;;;;;;8.15;4.63;;;;;;;0.78;91.25;98241.41;5069330;28;20044;-83
2022/01/20 07:31:22;;;;;;;7.10;4.50;;;;;;;0.78;91.44;98251.41;5051486;28;20040;-83
2022/01/20 07:33:49;;;;;;;7.88;4.20;;;;;;;0.79;91.05;98248.44;5032536;28;20041;-82
2022/01/20 07:36:16;;;;;;;7.28;4.97;;;;;;;0.83;90.98;98263.00;5030273;28;20122;-83
2022/01/20 07:38:42;;;;;;;10.40;4.60;;;;;;;0.83;90.43;98260.28;5068978;28;20418;-82
2022/01/20 07:41:09;;;;;;;6.88;4.00;;;;;;;0.79;90.96;98253.84;5035667;28;20487;-82
2022/01/20 07:43:34;;;;;;;14.45;5.05;;;;;;;0.78;90.42;98256.81;5035490;28;20045;-82
2022/01/20 07:46:17;;;;;;;9.20;4.75;;;;;;;0.79;90.49;98253.03;5052145;28;20407;-82
2022/01/20 07:48:55;;;;;;;8.75;4.68;;;;;;;0.83;90.00;98244.09;5051975;28;20048;-82
2022/01/20 07:51:21;;;;;;;9.32;5.10;;;;;;;0.82;91.41;98245.19;5035371;28;20041;-82
2022/01/20 07:53:47;;;;;;;11.15;5.43;;;;;;;0.82;90.50;98238.97;5035258;28;20045;-82
2022/01/20 07:56:13;;;;;;;10.40;5.40;;;;;;;0.81;90.51;98219.28;5018802;28;20454;-83
2022/01/20 07:58:40;;;;;;;6.47;4.88;;;;;;;0.79;90.74;98223.34;5053140;28;20537;-82
2022/01/20 08:01:06;;;;;;;9.85;5.90;;;;;;;0.79;90.63;98224.13;5035175;28;20041;-82
2022/01/20 08:03:37;;;;;;;9.20;5.15;;;;;;;0.82;90.45;98212.78;5034962;28;20059;-82
2022/01/20 08:06:06;;;;;;;;;;;;;;;0.84;90.65;98207.91;5052081;28;20052;-83
2022/01/20 08:08:35;;;;;;;14.90;5.05;;;;;;;0.85;90.92;98208.72;5035054;28;19924;-81
2022/01/20 08:11:22;;;;;;;9.57;5.15;;;;;;;0.86;90.62;98205.75;5066306;28;20043;-82
2022/01/20 08:13:49;;;;;;;11.98;6.00;;;;;;;0.89;90.98;98207.91;5035077;28;20033;-82
2022/01/20 08:16:15;;;;;;;10.57;5.60;;;;;;;0.88;91.13;98213.59;5035165;28;20533;-83
2022/01/20 08:18:40;;;;;;;11.45;5.53;;;;;;;0.87;90.53;98207.38;5034924;28;20075;-83
2022/01/20 08:21:06;;;;;;;8.98;5.30;;;;;;;0.86;90.25;98215.72;5051564;28;20595;-83
2022/01/20 08:23:32;;;;;;;9.25;5.32;;;;;;;0.83;90.17;98217.09;5018246;28;20140;-84
2022/01/20 08:25:57;;;;;;;9.88;5.70;;;;;;;0.81;90.08;98219.28;5051397;28;20037;-84
2022/01/20 08:28:23;;;;;;;8.35;5.90;;;;;;;0.77;90.36;98212.81;5052829;28;20596;-84
2022/01/20 08:30:50;;;;;;;8.63;5.75;;;;;;;0.74;90.43;98210.69;5067787;28;20037;-84
2022/01/20 08:33:16;;;;;;;9.98;6.25;;;;;;;0.70;91.39;98204.22;5034222;28;20700;-84
2022/01/20 08:35:55;;;;;;;11.15;6.30;;;;;;;0.67;91.66;98199.34;5034464;28;20139;-85
2022/01/20 08:38:35;;;;;;;12.82;6.97;;;;;;;0.65;91.77;98203.41;5068626;28;20037;-87
2022/01/20 08:41:00;;;;;;;10.02;5.80;;;;;;;0.62;92.30;98198.56;5035234;28;20568;-88
2022/01/20 08:43:26;;;;;;;11.63;6.30;;;;;;;0.61;92.96;98189.69;5018173;28;20037;-87
2022/01/20 08:45:52;;;;;;;10.48;6.88;;;;;;;0.62;92.87;98177.78;5067229;28;20037;-88
2022/01/20 08:48:20;;;;;;;11.82;6.75;;;;;;;0.63;92.78;98182.09;5034836;28;20076;-88
2022/01/20 08:51:21;;;;;;;9.93;6.18;;;;;;;0.59;93.48;98183.75;5008364;28;20040;-87
2022/01/20 08:54:17;;;;;;;11.50;6.25;;;;;;;0.57;93.17;98175.13;5021598;28;20543;-88
2022/01/20 08:56:45;;;;;;;14.27;7.18;;;;;;;0.53;93.53;98168.69;5034579;28;20466;-86
2022/01/20 08:59:12;;;;;;;11.15;6.72;;;;;;;0.51;93.81;98178.91;5034169;28;20041;-86
2022/01/20 09:01:42;;;;;;;11.93;6.95;;;;;;;0.53;93.95;98168.69;5067451;28;20072;-87
2022/01/20 09:04:09;;;;;;;12.77;7.38;;;;;;;0.51;93.92;98166.22;5034175;28;20572;-87
2022/01/20 09:06:42;;;;;;;12.27;7.00;;;;;;;0.50;94.14;98158.41;5034203;28;20041;-86
2022/01/20 09:09:20;;;;;;;12.30;7.20;;;;;;;0.50;94.42;98155.72;5043856;28;20125;-88
2022/01/20 09:12:02;;;;;;;9.95;6.88;;;;;;;0.51;94.32;98160.03;5049998;28;20041;-89
2022/01/20 09:17:14;;;;;;;12.27;7.30;;;;;;;0.48;94.92;98157.88;5051130;28;20091;-88
2022/01/20 09:19:39;;;;;;;11.32;6.90;;;;;;;0.44;94.79;98154.94;5041775;28;20041;-88
2022/01/20 09:22:06;;;;;;;12.55;7.10;;;;;;;0.40;94.86;98155.78;5050198;28;20131;-88
2022/01/20 09:24:32;;;;;;;15.45;8.18;;;;;;;0.41;94.95;98149.28;5032608;28;20048;-87
2022/01/20 09:27:00;;;;;;;17.25;7.45;;;;;;;0.39;95.05;98152.28;5066723;28;20040;-87
2022/01/20 09:29:26;;;;;;;12.63;7.88;;;;;;;0.38;95.03;98157.94;5033261;28;20045;-88
2022/01/20 09:31:53;;;;;;;14.23;9.02;;;;;;;0.38;95.01;98152.53;5033758;28;20036;-89
2022/01/20 09:34:24;;;;;;;11.75;8.20;;;;;;;0.36;94.96;98150.13;5047370;28;20106;-87
2022/01/20 09:36:50;;;;;;;13.60;7.07;;;;;;;0.38;95.29;98144.44;5033659;28;20048;-85
2022/01/20 09:39:16;;;;;;;10.77;5.90;;;;;;;0.38;95.31;98137.16;5050236;28;20089;-86
2022/01/20 09:42:05;;;;;;;10.33;6.07;;;;;;;0.38;95.50;98139.06;5020163;28;20487;-86
2022/01/20 09:44:32;;;;;;;11.38;6.03;;;;;;;0.34;95.74;98138.78;5066141;28;20037;-85
2022/01/20 09:46:58;;;;;;;10.52;5.90;;;;;;;0.32;95.66;98140.94;5049747;28;20041;-85
2022/01/20 09:49:51;;;;;;;11.13;5.93;;;;;;;0.30;95.84;98132.31;5034766;28;20463;-81
2022/01/20 09:52:28;;;;;;;9.27;5.15;;;;;;;0.27;95.83;98132.88;5048034;28;20499;-82
2022/01/20 09:55:08;;;;;;;12.02;6.18;;;;;;;0.22;95.93;98131.03;5050581;28;20044;-80
2022/01/20 09:57:39;;;;;;;9.05;5.60;;;;;;;0.21;95.84;98136.69;5049548;28;20043;-80
2022/01/20 10:00:09;;;;;;;14.32;7.32;;;;;;;0.20;95.97;98137.78;5049834;28;20430;-80
2022/01/20 10:02:58;;;;;;;10.02;5.88;;;;;;;0.14;95.78;98134.28;5065369;28;20490;-81
2022/01/20 10:05:34;;;;;;;11.25;6.07;;;;;;;0.10;96.09;98135.91;5033168;28;20045;-82
2022/01/20 10:08:11;;;;;;;14.15;7.13;;;;;;;0.06;95.87;98125.94;5033313;28;20075;-85
2022/01/20 10:10:57;;;;;;;10.82;6.25;;;;;;;0.03;96.06;98127.31;5043553;28;20033;-79
2022/01/20 10:13:48;;;;;;;10.10;6.20;;;;;;;0.03;95.47;98126.50;5035348;28;20465;-79
2022/01/20 10:16:35;;;;;;;11.90;6.25;;;;;;;0.02;96.40;98127.59;5048716;28;20037;-76
2022/01/20 10:19:07;;;;;;;9.55;5.53;;;;;;;0.05;96.46;98130.53;5033450;28;20500;-79
2022/01/20 10:21:38;;;;;;;14.30;6.55;;;;;;;0.03;96.22;98121.91;5016345;28;20052;-80
2022/01/20 10:24:26;;;;;;;10.30;6.32;;;;;;;0.05;96.69;98127.03;5049362;28;20098;-79
2022/01/20 10:27:13;;;;;;;9.13;4.93;;;;;;;0.04;96.62;98123.53;5050104;28;20044;-79
2022/01/20 10:29:55;;;;;;;13.80;6.38;;;;;;;0.01;96.71;98115.19;5032214;28;20458;-80
2022/01/20 10:32:21;;;;;;;9.48;5.65;;;;;;;-0.01;96.71;98116.25;5049206;28;20037;-79
2022/01/20 10:34:47;;;;;;;9.43;5.45;;;;;;;-0.01;96.63;98118.13;5028047;28;20044;-80
2022/01/20 10:37:18;;;;;;;13.52;6.00;;;;;;;-0.03;96.90;98112.22;5057078;28;20050;-79
2022/01/20 10:40:15;;;;;;;10.02;5.70;;;;;;;-0.05;96.92;98103.59;5073144;28;20538;-79
2022/01/20 10:42:48;;;;;;;10.32;5.38;;;;;;;-0.06;97.12;98100.09;5024654;28;20569;-82
2022/01/20 10:45:21;;;;;;;10.13;4.97;;;;;;;-0.08;97.14;98096.88;5046034;28;20037;-83
2022/01/20 10:47:53;;;;;;;8.75;5.78;;;;;;;-0.07;97.41;98100.38;5053957;28;20049;-81
2022/01/20 10:50:29;;;;;;;13.15;6.28;;;;;;;-0.08;97.37;98094.16;5052551;28;20060;-83
2022/01/20 10:52:59;;;;;;;11.63;6.38;;;;;;;-0.06;97.71;98097.41;5069173;28;20037;-81
2022/01/20 10:55:32;;;;;;;11.30;5.97;;;;;;;-0.06;97.73;98096.59;5053690;28;20088;-81
2022/01/20 10:58:22;;;;;;;10.43;5.45;;;;;;;-0.09;97.65;98100.66;5036501;28;20047;-81
2022/01/20 11:00:50;;;;;;;9.73;6.05;;;;;;;-0.09;97.54;98097.94;5053338;28;20029;-81
2022/01/20 11:03:17;;;;;;;;;;;;;;;-0.09;97.62;98089.06;5020023;28;20037;-81
2022/01/20 11:05:49;;;;;;;11.43;5.57;;;;;;;-0.10;98.05;98095.53;5038012;28;20288;-82
2022/01/20 11:08:19;;;;;;;8.73;5.53;;;;;;;-0.12;97.88;98095.00;5052793;28;20075;-83
2022/01/20 11:10:45;;;;;;;12.55;6.82;;;;;;;-0.15;98.41;98082.88;5051874;28;20094;-85
2022/01/20 11:13:43;;;;;;;10.63;7.05;;;;;;;-0.18;98.00;98080.72;5002676;28;20097;-82
2022/01/20 11:16:12;;;;;;;10.27;5.90;;;;;;;-0.20;97.93;98087.47;5031550;28;20063;-83
2022/01/20 11:18:42;;;;;;;10.75;5.63;;;;;;;-0.21;97.78;98091.25;5067325;28;20072;-80
2022/01/20 11:21:08;;;;;;;11.30;5.55;;;;;;;-0.22;98.16;98073.47;5053073;28;20131;-78
2022/01/20 11:23:41;;;;;;;;;;;;;;;-0.23;98.42;98083.44;5037439;28;20090;-78
2022/01/20 11:26:53;;;;;;;13.57;5.93;;;;;;;-0.25;98.22;98082.91;5007099;28;20487;-80
2022/01/20 11:29:50;;;;;;;9.80;5.22;;;;;;;-0.27;98.03;98068.09;5028299;28;20052;-83
2022/01/20 11:32:35;;;;;;;5.68;3.25;;;;;;;-0.31;98.19;98076.72;5028023;28;20036;-81
2022/01/20 11:35:14;;;;;;;10.68;6.15;;;;;;;-0.32;98.49;98071.63;5048408;28;20097;-79
2022/01/20 11:37:54;;;;;;;9.45;5.03;;;;;;;-0.33;98.62;98064.63;5071977;28;20033;-83
2022/01/20 11:40:22;;;;;;;6.93;5.13;;;;;;;-0.33;98.41;98060.03;5068308;28;20044;-82
2022/01/20 11:43:11;;;;;;;12.32;4.95;;;;;;;-0.33;98.63;98070.00;5035208;28;20499;-80
2022/01/20 11:45:40;;;;;;;11.65;5.80;;;;;;;-0.32;98.60;98067.03;5054849;28;20040;-81
2022/01/20 11:48:24;;;;;;;9.93;5.50;;;;;;;-0.31;98.56;98068.66;5054519;28;20053;-81
2022/01/20 11:51:07;;;;;;;10.85;4.38;;;;;;;-0.26;98.90;98061.63;5017665;28;20310;-82
2022/01/20 11:53:40;;;;;;;8.52;5.65;;;;;;;-0.26;98.61;98061.63;5053738;28;20507;-81
2022/01/20 11:56:07;;;;;;;8.05;4.85;;;;;;;-0.31;99.14;98055.16;5035338;28;20048;-81
2022/01/20 11:58:33;;;;;;;9.73;5.25;;;;;;;-0.31;98.88;98052.47;5053570;28;20040;-82
2022/01/20 12:01:05;;;;;;;10.38;4.68;;;;;;;-0.32;98.96;98053.56;5046091;28;20039;-78
2022/01/20 12:03:33;;;;;;;7.00;4.15;;;;;;;-0.32;99.20;98058.16;5041150;28;20118;-83
2022/01/20 12:06:13;;;;;;;9.88;5.53;;;;;;;-0.33;98.92;98056.53;5069028;28;20067;-82
2022/01/20 12:09:04;;;;;;;7.43;4.10;;;;;;;-0.37;98.95;98058.13;5039714;28;20056;-84
2022/01/20 12:11:45;;;;;;;;;;;;;;;-0.38;98.80;98054.63;5054534;28;20045;-82
2022/01/20 12:14:12;;;;;;;9.68;5.18;;;;;;;-0.39;99.06;98060.31;5053176;28;20014;-83
2022/01/20 12:16:40;;;;;;;7.95;5.35;;;;;;;-0.40;99.23;98051.41;5052894;28;20072;-82
2022/01/20 12:19:09;;;;;;;7.60;4.82;;;;;;;-0.42;98.99;98050.88;5050891;28;20072;-84
2022/01/20 12:21:36;;;;;;;9.47;5.20;;;;;;;-0.43;98.95;98051.97;5052413;28;20033;-83
2022/01/20 12:24:02;;;;;;;8.30;4.35;;;;;;;-0.45;99.35;98045.25;5050739;28;20055;-82
2022/01/20 12:26:32;;;;;;;8.38;4.72;;;;;;;-0.46;99.46;98049.81;5034176;28;20136;-82
2022/01/20 12:29:00;;;;;;;8.35;4.60;;;;;;;-0.47;99.58;98040.13;5045282;28;20486;-82
2022/01/20 12:31:26;;;;;;;8.77;4.88;;;;;;;-0.46;99.58;98039.03;5052132;28;20045;-81
2022/01/20 12:33:53;;;;;;;8.05;4.90;;;;;;;-0.45;99.11;98029.06;5051386;28;20041;-82
2022/01/20 12:36:19;;;;;;;7.95;4.70;;;;;;;-0.45;99.61;98042.53;5052316;28;20045;-83
2022/01/20 12:38:47;;;;;;;9.52;4.97;;;;;;;-0.47;99.42;98037.44;5052343;28;20527;-82
2022/01/20 12:41:18;;;;;;;7.65;4.18;;;;;;;-0.48;99.33;98046.59;5068211;28;20045;-82
2022/01/20 12:44:04;;;;;;;7.25;4.43;;;;;;;-0.47;99.57;98045.50;5052533;28;20047;-81
2022/01/20 12:46:41;;;;;;;11.88;4.70;;;;;;;-0.48;99.58;98045.78;5043863;28;20041;-82
2022/01/20 12:49:32;;;;;;;9.57;4.28;;;;;;;-0.47;99.91;98052.78;5052349;28;20064;-82
2022/01/20 12:51:58;;;;;;;6.78;4.45;;;;;;;-0.47;99.66;98042.00;5050764;28;20499;-83
2022/01/20 12:54:30;;;;;;;6.50;3.95;;;;;;;-0.48;99.81;98041.22;5017452;28;20140;-82
2022/01/20 12:56:59;;;;;;;9.55;4.70;;;;;;;-0.45;99.91;98045.25;5052020;28;20128;-82
2022/01/20 12:59:26;;;;;;;;;;;;;;;-0.46;99.07;98036.34;5033603;28;20133;-82
2022/01/20 13:01:53;;;;;;;8.20;4.60;;;;;;;-0.49;99.66;98039.59;5031980;28;19920;-81
2022/01/20 13:04:22;;;;;;;6.97;3.67;;;;;;;-0.49;99.79;98034.22;5033325;28;20079;-81